createdAt,value
2018-11-11T00:00:36.405Z,24.90
2018-11-11T00:01:36.383Z,24.70
2018-11-11T00:02:36.359Z,25.80
2018-11-11T00:03:36.334Z,25.10
2018-11-11T00:04:36.309Z,25.70
2018-11-11T00:05:36.285Z,26.60
2018-11-11T00:06:36.261Z,25.60
2018-11-11T00:07:36.242Z,25.80
2018-11-11T00:08:36.213Z,24.70
2018-11-11T00:09:36.189Z,25.50
2018-11-11T00:10:36.170Z,26.00
2018-11-11T00:11:36.142Z,25.60
2018-11-11T00:12:36.117Z,26.20
2018-11-11T00:13:36.094Z,25.60
2018-11-11T00:14:36.070Z,25.70
2018-11-11T00:15:36.050Z,27.10
2018-11-11T00:16:36.023Z,26.10
2018-11-11T00:17:35.999Z,27.50
2018-11-11T00:18:35.975Z,26.90
2018-11-11T00:19:35.950Z,29.20
2018-11-11T00:20:35.927Z,28.30
2018-11-11T00:21:35.971Z,29.30
2018-11-11T00:22:35.878Z,30.90
2018-11-11T00:23:35.854Z,29.60
2018-11-11T00:24:35.830Z,28.40
2018-11-11T00:25:35.805Z,27.60
2018-11-11T00:26:35.782Z,27.90
2018-11-11T00:27:35.759Z,29.00
2018-11-11T00:28:35.760Z,29.20
2018-11-11T00:29:35.710Z,27.20
2018-11-11T00:30:35.686Z,28.40
2018-11-11T00:31:35.663Z,27.70
2018-11-11T00:32:35.639Z,28.40
2018-11-11T00:33:35.615Z,28.90
2018-11-11T00:34:35.591Z,29.60
2018-11-11T00:35:35.568Z,29.20
2018-11-11T00:36:35.543Z,29.00
2018-11-11T00:37:35.519Z,29.30
2018-11-11T00:38:35.494Z,28.30
2018-11-11T00:39:35.514Z,28.50
2018-11-11T00:40:35.448Z,28.90
2018-11-11T00:41:35.423Z,29.60
2018-11-11T00:42:35.399Z,30.40
2018-11-11T00:43:35.376Z,31.30
2018-11-11T00:44:35.352Z,29.00
2018-11-11T00:45:35.328Z,29.20
2018-11-11T00:46:35.304Z,29.80
2018-11-11T00:47:35.280Z,30.30
2018-11-11T00:48:35.258Z,30.20
2018-11-11T00:49:35.232Z,32.00
2018-11-11T00:50:35.208Z,30.60
2018-11-11T00:51:35.188Z,30.40
2018-11-11T00:52:35.160Z,31.10
2018-11-11T00:53:35.136Z,31.50
2018-11-11T00:54:35.113Z,32.30
2018-11-11T00:55:35.090Z,31.40
2018-11-11T00:56:35.066Z,31.60
2018-11-11T00:57:35.041Z,31.70
2018-11-11T00:58:35.017Z,30.90
2018-11-11T00:59:34.994Z,31.10
2018-11-11T01:00:34.970Z,30.60
2018-11-11T01:01:34.946Z,30.40
2018-11-11T01:02:34.922Z,30.70
2018-11-11T01:03:34.899Z,32.20
2018-11-11T01:04:34.875Z,31.60
2018-11-11T01:05:34.851Z,30.40
2018-11-11T01:06:34.827Z,30.50
2018-11-11T01:07:34.804Z,32.40
2018-11-11T01:08:34.780Z,31.90
2018-11-11T01:09:34.759Z,32.70
2018-11-11T01:10:34.734Z,32.00
2018-11-11T01:11:34.710Z,31.10
2018-11-11T01:12:34.686Z,31.30
2018-11-11T01:13:34.663Z,31.90
2018-11-11T01:14:34.642Z,32.70
2018-11-11T01:15:34.615Z,32.30
2018-11-11T01:16:34.591Z,31.70
2018-11-11T01:17:34.567Z,32.60
2018-11-11T01:18:34.543Z,31.70
2018-11-11T01:19:34.521Z,31.80
2018-11-11T01:20:34.496Z,31.80
2018-11-11T01:21:34.472Z,32.30
2018-11-11T01:22:34.448Z,31.40
2018-11-11T01:23:34.425Z,31.00
2018-11-11T01:24:34.402Z,32.10
2018-11-11T01:25:34.380Z,30.10
2018-11-11T01:26:34.355Z,31.50
2018-11-11T01:27:34.332Z,30.50
2018-11-11T01:28:34.307Z,30.60
2018-11-11T01:29:34.284Z,30.80
2018-11-11T01:30:34.259Z,30.80
2018-11-11T01:31:34.237Z,31.70
2018-11-11T01:32:34.211Z,30.20
2018-11-11T01:33:34.191Z,31.00
2018-11-11T01:34:34.165Z,31.40
2018-11-11T01:35:34.142Z,30.10
2018-11-11T01:36:34.117Z,30.40
2018-11-11T01:37:34.096Z,31.00
2018-11-11T01:38:34.128Z,31.40
2018-11-11T01:39:34.047Z,31.50
2018-11-11T01:40:34.025Z,30.90
2018-11-11T01:41:33.998Z,30.60
2018-11-11T01:42:33.975Z,31.40
2018-11-11T01:43:33.952Z,31.80
2018-11-11T01:44:33.927Z,30.70
2018-11-11T01:45:33.906Z,30.20
2018-11-11T01:46:33.881Z,31.30
2018-11-11T01:47:33.856Z,31.90
2018-11-11T01:48:33.831Z,31.40
2018-11-11T01:49:33.808Z,31.50
2018-11-11T01:50:33.785Z,33.10
2018-11-11T01:51:33.761Z,34.50
2018-11-11T01:52:33.737Z,33.70
2018-11-11T01:53:33.713Z,34.20
2018-11-11T01:54:33.691Z,34.80
2018-11-11T01:55:33.666Z,33.00
2018-11-11T01:56:33.644Z,34.30
2018-11-11T01:57:33.619Z,33.40
2018-11-11T01:58:33.596Z,34.60
2018-11-11T01:59:33.572Z,34.00
2018-11-11T02:00:33.553Z,34.20
2018-11-11T02:01:33.524Z,33.80
2018-11-11T02:02:33.500Z,33.80
2018-11-11T02:03:33.486Z,33.40
2018-11-11T02:04:33.453Z,34.20
2018-11-11T02:05:33.429Z,34.60
2018-11-11T02:06:33.409Z,35.90
2018-11-11T02:07:33.382Z,36.20
2018-11-11T02:08:33.358Z,37.00
2018-11-11T02:09:33.364Z,35.50
2018-11-11T02:10:33.311Z,35.50
2018-11-11T02:11:33.287Z,34.10
2018-11-11T02:12:33.263Z,35.20
2018-11-11T02:13:33.241Z,36.40
2018-11-11T02:14:33.215Z,35.20
2018-11-11T02:15:33.190Z,36.10
2018-11-11T02:16:33.167Z,36.30
2018-11-11T02:17:33.143Z,36.90
2018-11-11T02:18:33.121Z,37.80
2018-11-11T02:19:33.096Z,37.00
2018-11-11T02:20:33.071Z,36.90
2018-11-11T02:21:33.087Z,36.30
2018-11-11T02:22:33.025Z,37.00
2018-11-11T02:23:33.001Z,36.20
2018-11-11T02:24:32.976Z,37.60
2018-11-11T02:25:32.952Z,36.40
2018-11-11T02:26:32.929Z,37.90
2018-11-11T02:27:32.905Z,36.40
2018-11-11T02:28:32.881Z,37.70
2018-11-11T02:29:32.857Z,37.40
2018-11-11T02:30:32.836Z,37.30
2018-11-11T02:31:32.810Z,37.60
2018-11-11T02:32:32.785Z,36.70
2018-11-11T02:33:32.763Z,35.30
2018-11-11T02:34:32.742Z,34.70
2018-11-11T02:35:32.717Z,35.20
2018-11-11T02:36:32.692Z,34.60
2018-11-11T02:37:33.477Z,35.10
2018-11-11T02:38:32.643Z,33.90
2018-11-11T02:39:32.620Z,35.60
2018-11-11T02:40:32.599Z,37.60
2018-11-11T02:41:32.571Z,37.50
2018-11-11T02:42:32.551Z,37.50
2018-11-11T02:43:32.524Z,38.90
2018-11-11T02:44:32.498Z,37.30
2018-11-11T02:45:32.474Z,38.30
2018-11-11T02:46:32.451Z,37.40
2018-11-11T02:47:32.427Z,36.60
2018-11-11T02:48:32.401Z,37.70
2018-11-11T02:49:32.377Z,37.40
2018-11-11T02:50:32.358Z,37.20
2018-11-11T02:51:32.331Z,37.60
2018-11-11T02:52:32.305Z,38.60
2018-11-11T02:53:32.282Z,37.90
2018-11-11T02:54:32.258Z,36.30
2018-11-11T02:55:32.234Z,36.00
2018-11-11T02:56:32.209Z,36.30
2018-11-11T02:57:32.184Z,36.10
2018-11-11T02:58:32.163Z,36.00
2018-11-11T02:59:32.139Z,37.20
2018-11-11T03:00:32.113Z,35.60
2018-11-11T03:01:32.088Z,35.40
2018-11-11T03:02:32.063Z,34.10
2018-11-11T03:03:32.040Z,33.80
2018-11-11T03:04:32.028Z,35.50
2018-11-11T03:05:31.992Z,37.40
2018-11-11T03:06:31.966Z,37.50
2018-11-11T03:07:31.942Z,38.70
2018-11-11T03:08:31.918Z,38.50
2018-11-11T03:09:31.896Z,37.50
2018-11-11T03:10:31.869Z,38.30
2018-11-11T03:11:31.847Z,37.60
2018-11-11T03:12:31.821Z,37.70
2018-11-11T03:13:31.795Z,38.60
2018-11-11T03:14:31.774Z,39.20
2018-11-11T03:15:31.747Z,39.00
2018-11-11T03:16:31.722Z,41.00
2018-11-11T03:17:31.698Z,40.00
2018-11-11T03:18:31.675Z,39.50
2018-11-11T03:19:31.651Z,40.10
2018-11-11T03:20:32.376Z,40.30
2018-11-11T03:21:31.607Z,39.40
2018-11-11T03:22:31.577Z,38.50
2018-11-11T03:23:31.554Z,38.60
2018-11-11T03:24:31.528Z,39.40
2018-11-11T03:25:31.507Z,38.00
2018-11-11T03:26:31.480Z,38.00
2018-11-11T03:27:31.455Z,38.60
2018-11-11T03:28:31.430Z,38.20
2018-11-11T03:29:31.407Z,38.30
2018-11-11T03:30:31.383Z,39.70
2018-11-11T03:31:32.109Z,37.60
2018-11-11T03:32:31.333Z,37.40
2018-11-11T03:33:31.310Z,36.00
2018-11-11T03:34:31.289Z,35.30
2018-11-11T03:35:31.261Z,35.10
2018-11-11T03:36:31.238Z,33.10
2018-11-11T03:37:31.213Z,34.10
2018-11-11T03:38:31.190Z,32.80
2018-11-11T03:39:31.165Z,33.50
2018-11-11T03:40:31.140Z,33.00
2018-11-11T03:41:31.116Z,33.60
2018-11-11T03:42:31.092Z,34.20
2018-11-11T03:43:31.068Z,35.10
2018-11-11T03:44:31.045Z,34.00
2018-11-11T03:45:31.019Z,34.10
2018-11-11T03:46:30.994Z,32.80
2018-11-11T03:47:30.973Z,34.20
2018-11-11T03:48:30.951Z,34.20
2018-11-11T03:49:30.921Z,34.30
2018-11-11T03:50:30.897Z,32.30
2018-11-11T03:51:30.873Z,32.60
2018-11-11T03:52:30.849Z,32.00
2018-11-11T03:53:30.830Z,32.40
2018-11-11T03:54:30.803Z,31.10
2018-11-11T03:55:30.779Z,30.30
2018-11-11T03:56:30.752Z,29.50
2018-11-11T03:57:32.230Z,28.00
2018-11-11T03:58:30.721Z,30.70
2018-11-11T03:59:30.683Z,31.10
2018-11-11T04:00:30.656Z,32.40
2018-11-11T04:01:30.632Z,32.10
2018-11-11T04:02:30.607Z,32.40
2018-11-11T04:03:30.583Z,32.50
2018-11-11T04:04:30.560Z,33.70
2018-11-11T04:05:30.535Z,32.70
2018-11-11T04:06:30.511Z,33.30
2018-11-11T04:07:30.487Z,33.50
2018-11-11T04:08:30.462Z,33.80
2018-11-11T04:09:30.438Z,35.00
2018-11-11T04:10:30.465Z,35.80
2018-11-11T04:11:30.398Z,35.60
2018-11-11T04:12:30.365Z,35.50
2018-11-11T04:13:30.342Z,36.10
2018-11-11T04:14:30.342Z,37.00
2018-11-11T04:15:30.294Z,35.30
2018-11-11T04:16:30.269Z,35.80
2018-11-11T04:17:30.246Z,37.30
2018-11-11T04:18:30.223Z,36.90
2018-11-11T04:19:30.949Z,37.70
2018-11-11T04:20:30.177Z,37.50
2018-11-11T04:21:30.149Z,36.50
2018-11-11T04:22:30.125Z,35.50
2018-11-11T04:23:30.101Z,35.90
2018-11-11T04:24:30.077Z,36.50
2018-11-11T04:25:30.052Z,37.20
2018-11-11T04:26:30.028Z,38.10
2018-11-11T04:27:30.004Z,37.20
2018-11-11T04:28:29.979Z,37.50
2018-11-11T04:29:29.956Z,37.50
2018-11-11T04:30:29.936Z,37.10
2018-11-11T04:31:29.909Z,36.20
2018-11-11T04:32:29.884Z,37.50
2018-11-11T04:33:29.861Z,38.40
2018-11-11T04:34:29.836Z,38.40
2018-11-11T04:35:29.822Z,39.20
2018-11-11T04:36:29.788Z,38.70
2018-11-11T04:37:29.764Z,38.70
2018-11-11T04:38:29.741Z,38.50
2018-11-11T04:39:29.716Z,36.90
2018-11-11T04:40:29.691Z,38.80
2018-11-11T04:41:29.667Z,37.30
2018-11-11T04:42:29.643Z,38.10
2018-11-11T04:43:29.620Z,38.60
2018-11-11T04:44:29.596Z,37.70
2018-11-11T04:45:29.571Z,37.90
2018-11-11T04:46:29.556Z,37.90
2018-11-11T04:47:29.527Z,37.30
2018-11-11T04:48:29.498Z,37.20
2018-11-11T04:49:29.475Z,37.40
2018-11-11T04:50:29.453Z,37.00
2018-11-11T04:51:29.427Z,37.80
2018-11-11T04:52:29.405Z,38.20
2018-11-11T04:53:29.379Z,38.90
2018-11-11T04:54:29.355Z,38.20
2018-11-11T04:55:29.332Z,37.60
2018-11-11T04:56:29.307Z,36.40
2018-11-11T04:57:29.282Z,38.80
2018-11-11T04:58:29.258Z,38.10
2018-11-11T04:59:29.237Z,39.00
2018-11-11T05:00:29.209Z,38.10
2018-11-11T05:01:29.196Z,39.30
2018-11-11T05:02:29.163Z,38.00
2018-11-11T05:03:29.140Z,37.60
2018-11-11T05:04:29.177Z,38.10
2018-11-11T05:05:29.090Z,37.80
2018-11-11T05:06:29.065Z,36.80
2018-11-11T05:07:29.042Z,35.40
2018-11-11T05:08:29.017Z,35.90
2018-11-11T05:09:29.034Z,37.20
2018-11-11T05:10:28.969Z,36.70
2018-11-11T05:11:28.945Z,35.30
2018-11-11T05:12:28.919Z,35.50
2018-11-11T05:13:28.897Z,34.80
2018-11-11T05:14:28.872Z,34.30
2018-11-11T05:15:28.848Z,33.00
2018-11-11T05:16:28.825Z,33.80
2018-11-11T05:17:28.799Z,32.20
2018-11-11T05:18:28.775Z,32.10
2018-11-11T05:19:28.753Z,32.40
2018-11-11T05:20:28.727Z,32.00
2018-11-11T05:21:28.703Z,32.90
2018-11-11T05:22:28.679Z,32.40
2018-11-11T05:23:28.656Z,32.60
2018-11-11T05:24:28.632Z,31.60
2018-11-11T05:25:28.610Z,31.40
2018-11-11T05:26:28.583Z,31.90
2018-11-11T05:27:28.560Z,33.20
2018-11-11T05:28:28.534Z,32.70
2018-11-11T05:29:28.511Z,32.70
2018-11-11T05:30:28.487Z,32.80
2018-11-11T05:31:28.464Z,33.20
2018-11-11T05:32:28.439Z,34.20
2018-11-11T05:33:28.415Z,32.40
2018-11-11T05:34:28.392Z,32.40
2018-11-11T05:35:28.367Z,32.60
2018-11-11T05:36:28.343Z,33.50
2018-11-11T05:37:28.322Z,33.40
2018-11-11T05:38:28.297Z,32.80
2018-11-11T05:39:29.023Z,31.80
2018-11-11T05:40:28.250Z,32.40
2018-11-11T05:41:28.224Z,30.70
2018-11-11T05:42:28.201Z,32.40
2018-11-11T05:43:28.177Z,30.20
2018-11-11T05:44:28.153Z,31.10
2018-11-11T05:45:28.131Z,31.70
2018-11-11T05:46:28.104Z,30.80
2018-11-11T05:47:28.081Z,30.40
2018-11-11T05:48:28.058Z,29.40
2018-11-11T05:49:28.033Z,30.60
2018-11-11T05:50:28.010Z,29.40
2018-11-11T05:51:27.986Z,27.30
2018-11-11T05:52:27.963Z,28.90
2018-11-11T05:53:27.937Z,29.40
2018-11-11T05:54:27.913Z,29.00
2018-11-11T05:55:27.889Z,29.40
2018-11-11T05:56:27.865Z,29.80
2018-11-11T05:57:27.841Z,29.00
2018-11-11T05:58:27.817Z,29.30
2018-11-11T05:59:27.795Z,30.60
2018-11-11T06:00:27.769Z,31.10
2018-11-11T06:01:27.746Z,29.80
2018-11-11T06:02:27.723Z,30.60
2018-11-11T06:03:27.708Z,30.50
2018-11-11T06:04:27.674Z,30.60
2018-11-11T06:05:27.649Z,28.90
2018-11-11T06:06:27.626Z,29.80
2018-11-11T06:07:27.606Z,30.20
2018-11-11T06:08:27.607Z,31.50
2018-11-11T06:09:27.555Z,31.20
2018-11-11T06:10:27.531Z,32.30
2018-11-11T06:11:27.508Z,32.40
2018-11-11T06:12:27.485Z,31.30
2018-11-11T06:13:27.458Z,32.00
2018-11-11T06:14:27.435Z,32.80
2018-11-11T06:15:27.412Z,31.90
2018-11-11T06:16:27.387Z,30.50
2018-11-11T06:17:27.365Z,32.50
2018-11-11T06:18:27.341Z,31.80
2018-11-11T06:19:27.317Z,31.20
2018-11-11T06:20:27.291Z,30.00
2018-11-11T06:21:27.276Z,29.50
2018-11-11T06:22:27.248Z,28.70
2018-11-11T06:23:27.223Z,26.00
2018-11-11T06:24:27.195Z,26.60
2018-11-11T06:25:27.173Z,25.80
2018-11-11T06:26:27.149Z,25.70
2018-11-11T06:27:27.896Z,23.50
2018-11-11T06:28:27.099Z,23.60
2018-11-11T06:29:27.075Z,24.60
2018-11-11T06:30:27.053Z,24.60
2018-11-11T06:31:27.027Z,23.10
2018-11-11T06:32:27.004Z,21.10
2018-11-11T06:33:26.980Z,21.60
2018-11-11T06:34:26.956Z,21.30
2018-11-11T06:35:26.932Z,21.90
2018-11-11T06:36:26.912Z,21.80
2018-11-11T06:37:26.884Z,21.40
2018-11-11T06:38:26.861Z,22.50
2018-11-11T06:39:26.837Z,22.50
2018-11-11T06:40:26.813Z,24.20
2018-11-11T06:41:26.789Z,26.20
2018-11-11T06:42:26.763Z,26.10
2018-11-11T06:43:26.741Z,26.70
2018-11-11T06:44:26.716Z,27.60
2018-11-11T06:45:26.691Z,29.00
2018-11-11T06:46:26.668Z,29.80
2018-11-11T06:47:26.645Z,30.00
2018-11-11T06:48:26.618Z,31.00
2018-11-11T06:49:26.596Z,32.30
2018-11-11T06:50:26.576Z,32.80
2018-11-11T06:51:26.547Z,34.70
2018-11-11T06:52:26.522Z,34.40
2018-11-11T06:53:26.499Z,35.10
2018-11-11T06:54:26.475Z,37.30
2018-11-11T06:55:26.452Z,35.70
2018-11-11T06:56:26.426Z,37.90
2018-11-11T06:57:26.402Z,37.50
2018-11-11T06:58:26.378Z,36.30
2018-11-11T06:59:26.354Z,37.00
2018-11-11T07:00:26.334Z,37.00
2018-11-11T07:01:26.304Z,38.30
2018-11-11T07:02:26.281Z,37.70
2018-11-11T07:03:26.255Z,35.70
2018-11-11T07:04:26.231Z,34.00
2018-11-11T07:05:26.207Z,32.60
2018-11-11T07:06:26.182Z,32.30
2018-11-11T07:07:26.181Z,29.70
2018-11-11T07:08:26.134Z,28.00
2018-11-11T07:09:26.110Z,28.30
2018-11-11T07:10:26.088Z,27.10
2018-11-11T07:11:26.063Z,22.70
2018-11-11T07:12:26.038Z,21.80
2018-11-11T07:13:26.016Z,23.60
2018-11-11T07:14:26.005Z,24.10
2018-11-11T07:15:25.965Z,25.00
2018-11-11T07:16:25.945Z,25.70
2018-11-11T07:17:25.918Z,26.20
2018-11-11T07:18:25.893Z,26.70
2018-11-11T07:19:25.871Z,23.90
2018-11-11T07:20:25.845Z,22.80
2018-11-11T07:21:25.822Z,21.90
2018-11-11T07:22:25.797Z,20.30
2018-11-11T07:23:25.793Z,20.00
2018-11-11T07:24:25.753Z,19.90
2018-11-11T07:25:25.725Z,17.10
2018-11-11T07:26:25.700Z,17.80
2018-11-11T07:27:25.677Z,18.50
2018-11-11T07:28:25.652Z,18.50
2018-11-11T07:29:25.628Z,18.60
2018-11-11T07:30:25.605Z,19.60
2018-11-11T07:31:25.603Z,19.80
2018-11-11T07:32:25.560Z,20.30
2018-11-11T07:33:25.534Z,21.70
2018-11-11T07:34:25.512Z,22.10
2018-11-11T07:35:25.485Z,21.60
2018-11-11T07:36:29.216Z,20.20
2018-11-11T07:37:25.440Z,20.30
2018-11-11T07:38:25.417Z,20.10
2018-11-11T07:39:25.393Z,19.70
2018-11-11T07:40:25.367Z,20.60
2018-11-11T07:41:25.344Z,21.90
2018-11-11T07:42:25.418Z,20.10
2018-11-11T07:43:25.298Z,19.40
2018-11-11T07:44:25.273Z,20.20
2018-11-11T07:45:25.251Z,19.60
2018-11-11T07:46:25.226Z,18.70
2018-11-11T07:47:25.203Z,19.90
2018-11-11T07:48:25.178Z,21.50
2018-11-11T07:49:25.154Z,19.90
2018-11-11T07:50:25.131Z,19.10
2018-11-11T07:51:25.107Z,20.20
2018-11-11T07:52:25.083Z,17.90
2018-11-11T07:53:25.063Z,17.30
2018-11-11T07:54:25.036Z,18.50
2018-11-11T07:55:25.013Z,17.20
2018-11-11T07:56:24.988Z,16.90
2018-11-11T07:57:24.964Z,16.60
2018-11-11T07:58:26.497Z,17.70
2018-11-11T07:59:24.920Z,16.90
2018-11-11T08:00:24.893Z,17.80
2018-11-11T08:01:24.917Z,15.20
2018-11-11T08:02:24.852Z,16.30
2018-11-11T08:03:24.820Z,16.50
2018-11-11T08:04:25.547Z,15.50
2018-11-11T08:05:24.772Z,17.10
2018-11-11T08:06:24.750Z,17.60
2018-11-11T08:07:24.724Z,18.70
2018-11-11T08:08:24.699Z,17.40
2018-11-11T08:09:24.677Z,16.90
2018-11-11T08:10:24.653Z,16.10
2018-11-11T08:11:24.628Z,16.50
2018-11-11T08:12:24.603Z,17.40
2018-11-11T08:13:24.578Z,16.00
2018-11-11T08:14:24.554Z,16.00
2018-11-11T08:15:24.530Z,17.40
2018-11-11T08:16:24.506Z,20.10
2018-11-11T08:17:24.481Z,22.20
2018-11-11T08:18:24.457Z,23.60
2018-11-11T08:19:24.434Z,24.60
2018-11-11T08:20:24.409Z,24.20
2018-11-11T08:21:24.385Z,25.10
2018-11-11T08:22:24.361Z,25.90
2018-11-11T08:23:24.337Z,26.10
2018-11-11T08:24:24.310Z,27.60
2018-11-11T08:25:24.302Z,26.10
2018-11-11T08:26:24.263Z,25.40
2018-11-11T08:27:24.238Z,26.70
2018-11-11T08:28:24.216Z,26.00
2018-11-11T08:29:24.197Z,25.40
2018-11-11T08:30:24.166Z,24.80
2018-11-11T08:31:24.143Z,26.40
2018-11-11T08:32:24.196Z,27.00
2018-11-11T08:33:24.094Z,25.50
2018-11-11T08:34:24.071Z,25.80
2018-11-11T08:35:24.046Z,26.40
2018-11-11T08:36:24.028Z,26.00
2018-11-11T08:37:23.998Z,25.50
2018-11-11T08:38:23.974Z,25.60
2018-11-11T08:39:23.951Z,24.80
2018-11-11T08:40:24.005Z,24.90
2018-11-11T08:41:23.903Z,26.00
2018-11-11T08:42:23.880Z,25.60
2018-11-11T08:43:23.857Z,27.40
2018-11-11T08:44:23.832Z,26.40
2018-11-11T08:45:23.809Z,27.00
2018-11-11T08:46:23.785Z,27.90
2018-11-11T08:47:23.761Z,26.30
2018-11-11T08:48:23.820Z,25.50
2018-11-11T08:49:23.713Z,24.20
2018-11-11T08:50:23.691Z,23.30
2018-11-11T08:51:23.668Z,23.50
2018-11-11T08:52:23.653Z,24.20
2018-11-11T08:53:23.620Z,22.70
2018-11-11T08:54:23.596Z,24.10
2018-11-11T08:55:23.572Z,23.50
2018-11-11T08:56:23.548Z,24.30
2018-11-11T08:57:23.528Z,24.90
2018-11-11T08:58:23.578Z,25.10
2018-11-11T08:59:23.479Z,23.40
2018-11-11T09:00:23.454Z,22.60
2018-11-11T09:01:23.432Z,22.50
2018-11-11T09:02:23.409Z,23.20
2018-11-11T09:03:23.384Z,22.20
2018-11-11T09:04:23.361Z,23.50
2018-11-11T09:05:23.338Z,24.60
2018-11-11T09:06:23.316Z,24.10
2018-11-11T09:07:23.295Z,25.70
2018-11-11T09:08:23.268Z,25.90
2018-11-11T09:09:23.247Z,24.80
2018-11-11T09:10:23.221Z,22.90
2018-11-11T09:11:23.246Z,24.30
2018-11-11T09:12:24.675Z,24.80
2018-11-11T09:13:23.153Z,23.90
2018-11-11T09:14:23.129Z,25.10
2018-11-11T09:15:23.107Z,23.90
2018-11-11T09:16:23.082Z,24.20
2018-11-11T09:17:23.064Z,23.90
2018-11-11T09:18:23.037Z,22.20
2018-11-11T09:19:23.014Z,21.30
2018-11-11T09:20:22.990Z,21.70
2018-11-11T09:21:23.017Z,20.60
2018-11-11T09:22:22.945Z,20.30
2018-11-11T09:23:22.925Z,20.50
2018-11-11T09:24:22.905Z,21.10
2018-11-11T09:25:22.900Z,21.30
2018-11-11T09:26:22.854Z,19.80
2018-11-11T09:27:22.832Z,20.70
2018-11-11T09:28:22.809Z,20.20
2018-11-11T09:29:22.808Z,20.80
2018-11-11T09:30:22.882Z,19.60
2018-11-11T09:31:22.743Z,20.00
2018-11-11T09:32:22.722Z,20.30
2018-11-11T09:33:22.697Z,20.60
2018-11-11T09:34:22.674Z,20.40
2018-11-11T09:35:22.729Z,19.30
2018-11-11T09:36:22.629Z,19.40
2018-11-11T09:37:22.606Z,19.30
2018-11-11T09:38:22.584Z,19.10
2018-11-11T09:39:22.562Z,20.30
2018-11-11T09:40:22.539Z,21.30
2018-11-11T09:41:22.517Z,21.80
2018-11-11T09:42:22.509Z,21.10
2018-11-11T09:43:22.472Z,18.60
2018-11-11T09:44:22.451Z,18.20
2018-11-11T09:45:22.428Z,18.00
2018-11-11T09:46:22.405Z,15.10
2018-11-11T09:47:22.384Z,15.20
2018-11-11T09:48:22.361Z,16.90
2018-11-11T09:49:22.338Z,14.60
2018-11-11T09:50:22.316Z,12.90
2018-11-11T09:51:23.795Z,13.80
2018-11-11T09:52:22.271Z,13.20
2018-11-11T09:53:22.248Z,13.20
2018-11-11T09:54:22.226Z,12.40
2018-11-11T09:55:22.204Z,13.30
2018-11-11T09:56:22.182Z,12.80
2018-11-11T09:57:24.412Z,11.80
2018-11-11T09:58:22.143Z,11.80
2018-11-11T09:59:22.115Z,10.60
2018-11-11T10:00:22.092Z,11.30
2018-11-11T10:01:22.070Z,10.00
2018-11-11T10:02:22.049Z,10.40
2018-11-11T10:03:23.527Z,11.20
2018-11-11T10:04:22.070Z,10.90
2018-11-11T10:05:21.981Z,10.40
2018-11-11T10:06:22.011Z,9.80
2018-11-11T10:07:21.937Z,10.80
2018-11-11T10:08:21.915Z,10.00
2018-11-11T10:09:24.145Z,9.10
2018-11-11T10:10:21.871Z,8.50
2018-11-11T10:11:21.849Z,7.90
2018-11-11T10:12:21.888Z,7.00
2018-11-11T10:13:21.807Z,7.30
2018-11-11T10:14:21.783Z,7.90
2018-11-11T10:15:21.815Z,7.90
2018-11-11T10:16:21.739Z,8.20
2018-11-11T10:17:21.716Z,7.40
2018-11-11T10:18:21.695Z,7.70
2018-11-11T10:19:21.674Z,7.30
2018-11-11T10:20:21.753Z,8.20
2018-11-11T10:21:21.629Z,7.70
2018-11-11T10:22:21.607Z,8.00
2018-11-11T10:23:21.585Z,8.10
2018-11-11T10:24:21.562Z,8.60
2018-11-11T10:25:21.540Z,8.30
2018-11-11T10:26:25.273Z,9.60
2018-11-11T10:27:21.511Z,9.40
2018-11-11T10:28:21.475Z,8.50
2018-11-11T10:29:21.498Z,7.50
2018-11-11T10:30:21.432Z,7.90
2018-11-11T10:31:21.411Z,8.40
2018-11-11T10:32:21.387Z,8.60
2018-11-11T10:33:21.368Z,8.60
2018-11-11T10:34:21.346Z,8.40
2018-11-11T10:35:21.374Z,9.10
2018-11-11T10:36:21.306Z,9.60
2018-11-11T10:37:21.363Z,9.00
2018-11-11T10:38:21.262Z,8.70
2018-11-11T10:39:21.321Z,8.30
2018-11-11T10:40:21.219Z,7.80
2018-11-11T10:41:21.192Z,8.70
2018-11-11T10:42:21.177Z,8.40
2018-11-11T10:43:21.902Z,8.00
2018-11-11T10:44:21.186Z,9.50
2018-11-11T10:45:21.108Z,8.30
2018-11-11T10:46:21.087Z,8.10
2018-11-11T10:47:21.064Z,8.00
2018-11-11T10:48:21.042Z,8.70
2018-11-11T10:49:21.023Z,8.60
2018-11-11T10:50:21.004Z,8.50
2018-11-11T10:51:20.989Z,8.90
2018-11-11T10:52:20.957Z,7.30
2018-11-11T10:53:20.936Z,6.80
2018-11-11T10:54:21.687Z,7.30
2018-11-11T10:55:20.895Z,7.50
2018-11-11T10:56:20.875Z,7.70
2018-11-11T10:57:20.853Z,6.70
2018-11-11T10:58:20.835Z,7.60
2018-11-11T10:59:20.811Z,8.20
2018-11-11T11:00:20.859Z,8.20
2018-11-11T11:01:20.769Z,7.40
2018-11-11T11:02:20.750Z,6.30
2018-11-11T11:03:20.730Z,6.60
2018-11-11T11:04:20.707Z,6.60
2018-11-11T11:05:20.687Z,6.40
2018-11-11T11:06:20.666Z,6.10
2018-11-11T11:07:20.646Z,6.60
2018-11-11T11:08:20.628Z,6.70
2018-11-11T11:09:20.603Z,6.80
2018-11-11T11:10:20.584Z,6.70
2018-11-11T11:11:20.563Z,6.30
2018-11-11T11:12:20.540Z,6.00
2018-11-11T11:13:20.628Z,6.20
2018-11-11T11:14:20.503Z,6.00
2018-11-11T11:15:20.480Z,5.60
2018-11-11T11:16:20.456Z,6.00
2018-11-11T11:17:20.435Z,5.70
2018-11-11T11:18:20.417Z,5.80
2018-11-11T11:19:20.394Z,6.30
2018-11-11T11:20:20.372Z,6.40
2018-11-11T11:21:20.350Z,6.10
2018-11-11T11:22:20.331Z,4.90
2018-11-11T11:23:20.309Z,4.80
2018-11-11T11:24:20.286Z,4.70
2018-11-11T11:25:20.265Z,5.20
2018-11-11T11:26:20.246Z,5.30
2018-11-11T11:27:20.325Z,5.00
2018-11-11T11:28:20.201Z,4.80
2018-11-11T11:29:20.180Z,4.70
2018-11-11T11:30:20.159Z,4.60
2018-11-11T11:31:20.189Z,4.70
2018-11-11T11:32:20.866Z,4.70
2018-11-11T11:33:20.093Z,5.00
2018-11-11T11:34:20.071Z,5.30
2018-11-11T11:35:20.143Z,4.60
2018-11-11T11:36:20.028Z,6.20
2018-11-11T11:37:20.009Z,4.10
2018-11-11T11:38:20.116Z,4.20
2018-11-11T11:39:19.965Z,4.50
2018-11-11T11:40:19.942Z,4.90
2018-11-11T11:41:19.945Z,4.50
2018-11-11T11:42:19.901Z,5.00
2018-11-11T11:43:20.628Z,4.70
2018-11-11T11:44:19.855Z,4.30
2018-11-11T11:45:19.833Z,4.20
2018-11-11T11:46:19.811Z,4.60
2018-11-11T11:47:19.851Z,4.30
2018-11-11T11:48:19.768Z,4.40
2018-11-11T11:49:19.747Z,4.70
2018-11-11T11:50:19.737Z,4.30
2018-11-11T11:51:19.704Z,3.80
2018-11-11T11:52:19.728Z,4.70
2018-11-11T11:53:19.663Z,4.80
2018-11-11T11:54:19.640Z,4.60
2018-11-11T11:55:19.616Z,4.30
2018-11-11T11:56:19.595Z,4.30
2018-11-11T11:57:19.573Z,4.70
2018-11-11T11:58:19.551Z,4.60
2018-11-11T11:59:19.530Z,4.90
2018-11-11T12:00:19.507Z,4.70
2018-11-11T12:01:19.485Z,4.70
2018-11-11T12:02:19.636Z,5.10
2018-11-11T12:03:19.441Z,4.30
2018-11-11T12:04:19.420Z,4.60
2018-11-11T12:05:19.398Z,4.20
2018-11-11T12:06:19.379Z,4.50
2018-11-11T12:07:19.355Z,4.50
2018-11-11T12:08:19.381Z,4.30
2018-11-11T12:09:19.427Z,4.20
2018-11-11T12:10:19.289Z,3.60
2018-11-11T12:11:19.267Z,4.40
2018-11-11T12:12:19.244Z,4.50
2018-11-11T12:13:19.222Z,4.60
2018-11-11T12:14:19.200Z,4.70
2018-11-11T12:15:19.179Z,4.90
2018-11-11T12:16:19.215Z,3.50
2018-11-11T12:17:19.145Z,3.30
2018-11-11T12:18:19.113Z,3.80
2018-11-11T12:19:19.091Z,3.80
2018-11-11T12:20:19.070Z,3.50
2018-11-11T12:21:19.047Z,3.30
2018-11-11T12:22:19.026Z,6.60
2018-11-11T12:23:19.065Z,3.60
2018-11-11T12:24:18.983Z,3.60
2018-11-11T12:25:18.960Z,3.90
2018-11-11T12:26:18.943Z,3.70
2018-11-11T12:27:18.917Z,3.60
2018-11-11T12:28:18.895Z,3.50
2018-11-11T12:29:18.874Z,4.20
2018-11-11T12:30:18.891Z,3.80
2018-11-11T12:31:18.831Z,4.10
2018-11-11T12:32:18.808Z,4.00
2018-11-11T12:33:18.791Z,3.60
2018-11-11T12:34:18.766Z,3.60
2018-11-11T12:35:18.744Z,3.40
2018-11-11T12:36:20.226Z,2.90
2018-11-11T12:37:18.700Z,2.80
2018-11-11T12:38:18.682Z,3.10
2018-11-11T12:39:18.811Z,3.00
2018-11-11T12:40:18.856Z,2.60
2018-11-11T12:41:18.614Z,2.90
2018-11-11T12:42:18.597Z,2.80
2018-11-11T12:43:18.625Z,2.70
2018-11-11T12:44:18.550Z,3.00
2018-11-11T12:45:18.530Z,3.00
2018-11-11T12:46:18.508Z,3.20
2018-11-11T12:47:18.486Z,3.40
2018-11-11T12:48:18.465Z,2.80
2018-11-11T12:49:18.444Z,3.40
2018-11-11T12:50:18.507Z,3.50
2018-11-11T12:51:18.401Z,3.60
2018-11-11T12:52:18.382Z,3.10
2018-11-11T12:53:18.358Z,3.40
2018-11-11T12:54:18.336Z,3.40
2018-11-11T12:55:18.398Z,3.70
2018-11-11T12:56:18.294Z,3.40
2018-11-11T12:57:18.273Z,3.30
2018-11-11T12:58:18.252Z,3.70